sensor_id;sensor_type;location;lat;lon;timestamp;pressure;altitude;pressure_sealevel;temperature;humidity
50702;BME280;36670;50.094;8.496;2022-09-27T00:02:10;98394.94;;;12.19;78.90
50702;BME280;36670;50.094;8.496;2022-09-27T00:04:35;98386.53;;;12.10;78.63
50702;BME280;36670;50.094;8.496;2022-09-27T00:07:00;98402.72;;;12.03;78.73
50702;BME280;36670;50.094;8.496;2022-09-27T00:09:26;98392.88;;;12.11;79.26
50702;BME280;36670;50.094;8.496;2022-09-27T00:11:51;98401.28;;;12.06;78.24
50702;BME280;36670;50.094;8.496;2022-09-27T00:14:17;98400.75;;;12.04;79.19
50702;BME280;36670;50.094;8.496;2022-09-27T00:16:43;98399.97;;;12.03;79.38
50702;BME280;36670;50.094;8.496;2022-09-27T00:19:14;98401.19;;;12.11;79.23
50702;BME280;36670;50.094;8.496;2022-09-27T00:21:41;98404.66;;;12.17;78.80
50702;BME280;36670;50.094;8.496;2022-09-27T00:24:11;98398.19;;;12.21;79.07
50702;BME280;36670;50.094;8.496;2022-09-27T00:26:37;98392.66;;;12.21;78.87
50702;BME280;36670;50.094;8.496;2022-09-27T00:29:02;98398.50;;;12.20;78.87
50702;BME280;36670;50.094;8.496;2022-09-27T00:31:29;98390.41;;;12.23;78.01
50702;BME280;36670;50.094;8.496;2022-09-27T00:33:56;98393.47;;;12.22;78.48
50702;BME280;36670;50.094;8.496;2022-09-27T00:36:23;98393.66;;;12.25;78.47
50702;BME280;36670;50.094;8.496;2022-09-27T00:38:50;98388.13;;;12.25;78.14
50702;BME280;36670;50.094;8.496;2022-09-27T00:41:19;98387.34;;;12.25;78.21
50702;BME280;36670;50.094;8.496;2022-09-27T00:46:34;98380.84;;;12.29;79.06
50702;BME280;36670;50.094;8.496;2022-09-27T00:49:09;98384.44;;;12.30;78.16
50702;BME280;36670;50.094;8.496;2022-09-27T00:51:38;98390.66;;;12.36;77.84
50702;BME280;36670;50.094;8.496;2022-09-27T00:54:06;98387.41;;;12.34;78.72
50702;BME280;36670;50.094;8.496;2022-09-27T00:56:35;98381.66;;;12.30;78.73
50702;BME280;36670;50.094;8.496;2022-09-27T00:59:57;98382.91;;;12.24;78.13
50702;BME280;36670;50.094;8.496;2022-09-27T01:02:13;98371.34;;;12.22;78.66
50702;BME280;36670;50.094;8.496;2022-09-27T01:04:40;98367.75;;;12.21;78.56
50702;BME280;36670;50.094;8.496;2022-09-27T01:07:06;98367.50;;;12.32;78.66
50702;BME280;36670;50.094;8.496;2022-09-27T01:09:32;98365.28;;;12.34;78.28
50702;BME280;36670;50.094;8.496;2022-09-27T01:18:24;98368.34;;;12.32;77.89
50702;BME280;36670;50.094;8.496;2022-09-27T01:21:05;98362.75;;;12.23;78.68
50702;BME280;36670;50.094;8.496;2022-09-27T01:32:05;98365.63;;;12.18;78.78
50702;BME280;36670;50.094;8.496;2022-09-27T01:37:49;98361.63;;;12.10;78.77
50702;BME280;36670;50.094;8.496;2022-09-27T01:40:38;98364.28;;;12.16;79.32
50702;BME280;36670;50.094;8.496;2022-09-27T01:43:15;98358.13;;;12.19;79.00
50702;BME280;36670;50.094;8.496;2022-09-27T01:45:58;98357.63;;;12.17;79.32
50702;BME280;36670;50.094;8.496;2022-09-27T01:48:31;98357.34;;;12.04;79.54
50702;BME280;36670;50.094;8.496;2022-09-27T01:51:13;98350.16;;;12.03;79.65
50702;BME280;36670;50.094;8.496;2022-09-27T01:53:42;98350.16;;;12.03;79.10
50702;BME280;36670;50.094;8.496;2022-09-27T01:56:13;98351.81;;;11.90;79.58
50702;BME280;36670;50.094;8.496;2022-09-27T01:58:58;98354.59;;;12.04;79.16
50702;BME280;36670;50.094;8.496;2022-09-27T02:01:28;98351.50;;;12.06;78.89
50702;BME280;36670;50.094;8.496;2022-09-27T02:03:57;98350.81;;;12.00;80.00
50702;BME280;36670;50.094;8.496;2022-09-27T02:06:32;98354.38;;;12.01;78.82
50702;BME280;36670;50.094;8.496;2022-09-27T02:09:06;98350.69;;;11.91;79.28
50702;BME280;36670;50.094;8.496;2022-09-27T02:11:37;98353.94;;;11.93;80.14
50702;BME280;36670;50.094;8.496;2022-09-27T02:14:14;98340.44;;;11.78;79.56
50702;BME280;36670;50.094;8.496;2022-09-27T02:16:49;98350.69;;;11.91;79.33
50702;BME280;36670;50.094;8.496;2022-09-27T02:22:31;98351.09;;;11.85;80.65
50702;BME280;36670;50.094;8.496;2022-09-27T02:25:12;98351.50;;;11.92;80.15
50702;BME280;36670;50.094;8.496;2022-09-27T02:27:56;98355.09;;;11.78;80.64
50702;BME280;36670;50.094;8.496;2022-09-27T02:30:23;98351.13;;;11.71;80.81
50702;BME280;36670;50.094;8.496;2022-09-27T02:32:48;98354.28;;;11.78;79.93
50702;BME280;36670;50.094;8.496;2022-09-27T02:35:29;98351.81;;;11.76;80.50
50702;BME280;36670;50.094;8.496;2022-09-27T02:37:56;98351.50;;;11.78;80.65
50702;BME280;36670;50.094;8.496;2022-09-27T02:40:22;98345.47;;;11.76;81.08
50702;BME280;36670;50.094;8.496;2022-09-27T02:42:48;98352.53;;;11.68;80.30
50702;BME280;36670;50.094;8.496;2022-09-27T02:45:16;98357.16;;;11.59;80.70
50702;BME280;36670;50.094;8.496;2022-09-27T02:48:08;98354.28;;;11.64;81.26
50702;BME280;36670;50.094;8.496;2022-09-27T02:50:57;98370.16;;;11.72;80.87
50702;BME280;36670;50.094;8.496;2022-09-27T02:56:30;98381.81;;;11.55;80.49
50702;BME280;36670;50.094;8.496;2022-09-27T03:06:41;98388.06;;;11.75;80.30
50702;BME280;36670;50.094;8.496;2022-09-27T03:09:20;98393.91;;;11.59;80.65
50702;BME280;36670;50.094;8.496;2022-09-27T03:11:46;98399.94;;;11.48;80.07
50702;BME280;36670;50.094;8.496;2022-09-27T03:14:12;98404.94;;;11.32;80.00
50702;BME280;36670;50.094;8.496;2022-09-27T03:16:37;98402.22;;;11.13;81.01
50702;BME280;36670;50.094;8.496;2022-09-27T03:19:02;98408.91;;;11.25;80.17
50702;BME280;36670;50.094;8.496;2022-09-27T03:21:28;98410.50;;;11.13;79.51
50702;BME280;36670;50.094;8.496;2022-09-27T03:23:53;98421.38;;;10.90;79.69
50702;BME280;36670;50.094;8.496;2022-09-27T03:26:19;98416.59;;;10.96;79.62
50702;BME280;36670;50.094;8.496;2022-09-27T03:28:44;98417.47;;;10.91;80.03
50702;BME280;36670;50.094;8.496;2022-09-27T03:31:10;98409.50;;;10.89;80.28
50702;BME280;36670;50.094;8.496;2022-09-27T03:33:35;98425.63;;;10.82;79.56
50702;BME280;36670;50.094;8.496;2022-09-27T03:36:07;98432.50;;;10.85;79.99
50702;BME280;36670;50.094;8.496;2022-09-27T03:38:33;98435.19;;;10.71;79.65
50702;BME280;36670;50.094;8.496;2022-09-27T03:40:58;98421.41;;;10.71;78.74
50702;BME280;36670;50.094;8.496;2022-09-27T03:43:24;98427.97;;;10.56;80.02
50702;BME280;36670;50.094;8.496;2022-09-27T03:45:49;98430.13;;;10.78;79.32
50702;BME280;36670;50.094;8.496;2022-09-27T03:48:15;98431.91;;;10.69;78.76
50702;BME280;36670;50.094;8.496;2022-09-27T03:50:40;98440.72;;;10.71;79.34
50702;BME280;36670;50.094;8.496;2022-09-27T03:53:06;98439.00;;;10.56;79.59
50702;BME280;36670;50.094;8.496;2022-09-27T03:55:32;98446.84;;;10.68;78.73
50702;BME280;36670;50.094;8.496;2022-09-27T03:57:57;98438.69;;;10.57;79.96
50702;BME280;36670;50.094;8.496;2022-09-27T04:00:22;98443.84;;;10.64;79.78
50702;BME280;36670;50.094;8.496;2022-09-27T04:02:48;98455.78;;;10.59;79.88
50702;BME280;36670;50.094;8.496;2022-09-27T04:05:14;98449.59;;;10.49;80.16
50702;BME280;36670;50.094;8.496;2022-09-27T04:07:45;98450.72;;;10.67;79.55
50702;BME280;36670;50.094;8.496;2022-09-27T04:10:10;98453.84;;;10.79;78.95
50702;BME280;36670;50.094;8.496;2022-09-27T04:12:38;98451.09;;;10.79;79.24
50702;BME280;36670;50.094;8.496;2022-09-27T04:15:04;98458.47;;;10.84;79.27
50702;BME280;36670;50.094;8.496;2022-09-27T04:17:29;98465.03;;;10.88;79.35
50702;BME280;36670;50.094;8.496;2022-09-27T04:19:55;98462.25;;;10.88;79.37
50702;BME280;36670;50.094;8.496;2022-09-27T04:22:20;98457.03;;;10.86;79.37
50702;BME280;36670;50.094;8.496;2022-09-27T04:24:46;98466.97;;;10.87;79.09
50702;BME280;36670;50.094;8.496;2022-09-27T04:27:11;98465.09;;;11.02;79.06
50702;BME280;36670;50.094;8.496;2022-09-27T04:29:37;98462.25;;;11.07;78.03
50702;BME280;36670;50.094;8.496;2022-09-27T04:32:06;98459.06;;;11.00;78.27
50702;BME280;36670;50.094;8.496;2022-09-27T04:34:31;98469.38;;;10.94;78.35
50702;BME280;36670;50.094;8.496;2022-09-27T04:37:15;98470.41;;;10.79;79.24
50702;BME280;36670;50.094;8.496;2022-09-27T04:39:40;98476.66;;;10.85;79.20
50702;BME280;36670;50.094;8.496;2022-09-27T04:42:06;98479.19;;;10.81;79.04
50702;BME280;36670;50.094;8.496;2022-09-27T04:44:31;98491.75;;;10.73;79.20
50702;BME280;36670;50.094;8.496;2022-09-27T04:46:57;98486.44;;;10.77;78.64
50702;BME280;36670;50.094;8.496;2022-09-27T04:49:22;98495.31;;;10.74;79.43
50702;BME280;36670;50.094;8.496;2022-09-27T04:51:47;98494.06;;;10.66;80.11
50702;BME280;36670;50.094;8.496;2022-09-27T04:54:13;98496.16;;;10.74;79.65
50702;BME280;36670;50.094;8.496;2022-09-27T04:56:38;98499.09;;;10.59;79.30
50702;BME280;36670;50.094;8.496;2022-09-27T04:59:03;98503.00;;;10.58;79.31
50702;BME280;36670;50.094;8.496;2022-09-27T05:01:29;98489.88;;;10.50;80.02
50702;BME280;36670;50.094;8.496;2022-09-27T05:03:54;98486.81;;;10.51;79.03
50702;BME280;36670;50.094;8.496;2022-09-27T05:06:19;98497.16;;;10.40;79.81
50702;BME280;36670;50.094;8.496;2022-09-27T05:08:45;98493.09;;;10.33;79.78
50702;BME280;36670;50.094;8.496;2022-09-27T05:11:10;98507.69;;;10.33;79.50
50702;BME280;36670;50.094;8.496;2022-09-27T05:13:35;98509.91;;;10.31;80.35
50702;BME280;36670;50.094;8.496;2022-09-27T05:16:04;98515.72;;;10.35;79.64
50702;BME280;36670;50.094;8.496;2022-09-27T05:18:29;98520.63;;;10.38;79.55
50702;BME280;36670;50.094;8.496;2022-09-27T05:20:55;98515.13;;;10.38;80.06
50702;BME280;36670;50.094;8.496;2022-09-27T05:23:23;98520.13;;;10.36;79.79
50702;BME280;36670;50.094;8.496;2022-09-27T05:25:48;98524.56;;;10.32;80.18
50702;BME280;36670;50.094;8.496;2022-09-27T05:28:13;98528.91;;;10.38;79.80
50702;BME280;36670;50.094;8.496;2022-09-27T05:30:39;98528.69;;;10.34;80.25
50702;BME280;36670;50.094;8.496;2022-09-27T05:33:05;98530.88;;;10.32;80.65
50702;BME280;36670;50.094;8.496;2022-09-27T05:35:30;98539.28;;;10.46;79.89
50702;BME280;36670;50.094;8.496;2022-09-27T05:37:58;98535.56;;;10.37;79.85
50702;BME280;36670;50.094;8.496;2022-09-27T05:40:24;98540.63;;;10.49;79.72
50702;BME280;36670;50.094;8.496;2022-09-27T05:42:51;98543.50;;;10.63;79.59
50702;BME280;36670;50.094;8.496;2022-09-27T05:45:18;98548.41;;;10.66;79.05
50702;BME280;36670;50.094;8.496;2022-09-27T05:47:51;98546.19;;;10.68;79.13
50702;BME280;36670;50.094;8.496;2022-09-27T05:50:16;98548.06;;;10.72;79.09
50702;BME280;36670;50.094;8.496;2022-09-27T05:52:42;98555.53;;;10.72;79.16
50702;BME280;36670;50.094;8.496;2022-09-27T05:55:08;98550.00;;;10.91;78.52
50702;BME280;36670;50.094;8.496;2022-09-27T05:57:33;98556.81;;;10.99;78.18
50702;BME280;36670;50.094;8.496;2022-09-27T05:59:59;98559.63;;;10.93;78.07
50702;BME280;36670;50.094;8.496;2022-09-27T06:02:24;98556.22;;;11.02;78.64
50702;BME280;36670;50.094;8.496;2022-09-27T06:04:49;98556.75;;;11.04;77.98
50702;BME280;36670;50.094;8.496;2022-09-27T06:07:15;98556.50;;;11.00;78.25
50702;BME280;36670;50.094;8.496;2022-09-27T06:09:40;98568.16;;;10.97;79.07
50702;BME280;36670;50.094;8.496;2022-09-27T06:12:06;98569.63;;;10.89;78.99
50702;BME280;36670;50.094;8.496;2022-09-27T06:14:36;98571.13;;;11.01;79.23
50702;BME280;36670;50.094;8.496;2022-09-27T06:17:02;98578.16;;;11.12;78.38
50702;BME280;36670;50.094;8.496;2022-09-27T06:19:28;98583.47;;;11.27;78.20
50702;BME280;36670;50.094;8.496;2022-09-27T06:21:54;98587.72;;;11.39;78.22
50702;BME280;36670;50.094;8.496;2022-09-27T06:24:19;98586.06;;;11.38;77.28
50702;BME280;36670;50.094;8.496;2022-09-27T06:26:44;98600.47;;;11.35;78.27
50702;BME280;36670;50.094;8.496;2022-09-27T06:29:10;98603.59;;;11.28;78.00
50702;BME280;36670;50.094;8.496;2022-09-27T06:31:35;98602.63;;;11.38;77.22
50702;BME280;36670;50.094;8.496;2022-09-27T06:34:01;98596.88;;;11.53;77.94
50702;BME280;36670;50.094;8.496;2022-09-27T06:36:26;98593.13;;;11.63;77.38
50702;BME280;36670;50.094;8.496;2022-09-27T06:38:51;98607.38;;;11.70;77.02
50702;BME280;36670;50.094;8.496;2022-09-27T06:41:17;98610.13;;;11.70;76.68
50702;BME280;36670;50.094;8.496;2022-09-27T06:43:42;98610.06;;;11.56;75.88
50702;BME280;36670;50.094;8.496;2022-09-27T06:46:07;98617.50;;;11.61;76.21
50702;BME280;36670;50.094;8.496;2022-09-27T06:48:33;98628.53;;;11.61;76.68
50702;BME280;36670;50.094;8.496;2022-09-27T06:51:00;98629.06;;;11.63;76.03
50702;BME280;36670;50.094;8.496;2022-09-27T06:53:25;98633.41;;;11.31;77.09
50702;BME280;36670;50.094;8.496;2022-09-27T06:55:52;98636.75;;;11.28;77.05
50702;BME280;36670;50.094;8.496;2022-09-27T06:58:17;98642.50;;;11.13;76.87
50702;BME280;36670;50.094;8.496;2022-09-27T07:01:02;98650.72;;;11.18;77.44
50702;BME280;36670;50.094;8.496;2022-09-27T07:03:28;98646.31;;;11.17;77.25
50702;BME280;36670;50.094;8.496;2022-09-27T07:06:01;98652.00;;;11.25;76.34
50702;BME280;36670;50.094;8.496;2022-09-27T07:08:28;98653.56;;;11.32;76.95
50702;BME280;36670;50.094;8.496;2022-09-27T07:10:55;98659.63;;;11.53;76.92
50702;BME280;36670;50.094;8.496;2022-09-27T07:13:20;98659.81;;;11.56;76.71
50702;BME280;36670;50.094;8.496;2022-09-27T07:15:46;98664.69;;;11.65;75.73
50702;BME280;36670;50.094;8.496;2022-09-27T07:18:12;98678.97;;;11.72;75.53
50702;BME280;36670;50.094;8.496;2022-09-27T07:20:37;98670.94;;;11.89;75.63
50702;BME280;36670;50.094;8.496;2022-09-27T07:23:07;98676.34;;;12.00;74.66
50702;BME280;36670;50.094;8.496;2022-09-27T07:25:33;98683.47;;;11.68;74.45
50702;BME280;36670;50.094;8.496;2022-09-27T07:28:04;98674.06;;;11.83;75.60
50702;BME280;36670;50.094;8.496;2022-09-27T07:30:31;98674.16;;;11.97;74.89
50702;BME280;36670;50.094;8.496;2022-09-27T07:33:01;98670.94;;;11.89;74.18
50702;BME280;36670;50.094;8.496;2022-09-27T07:35:27;98678.28;;;11.99;74.70
50702;BME280;36670;50.094;8.496;2022-09-27T07:37:54;98678.63;;;11.92;74.54
50702;BME280;36670;50.094;8.496;2022-09-27T07:40:21;98680.34;;;12.07;73.63
50702;BME280;36670;50.094;8.496;2022-09-27T07:42:46;98686.69;;;12.41;74.13
50702;BME280;36670;50.094;8.496;2022-09-27T07:45:12;98686.28;;;12.34;72.99
50702;BME280;36670;50.094;8.496;2022-09-27T07:47:39;98691.28;;;12.32;72.86
50702;BME280;36670;50.094;8.496;2022-09-27T07:50:05;98699.94;;;12.72;72.81
50702;BME280;36670;50.094;8.496;2022-09-27T07:52:42;98691.78;;;13.36;71.10
50702;BME280;36670;50.094;8.496;2022-09-27T07:55:09;98660.31;;;13.55;67.87
50702;BME280;36670;50.094;8.496;2022-09-27T07:57:35;98693.53;;;13.91;67.95
50702;BME280;36670;50.094;8.496;2022-09-27T08:00:04;98701.44;;;13.98;68.23
50702;BME280;36670;50.094;8.496;2022-09-27T08:02:29;98697.53;;;13.99;68.77
50702;BME280;36670;50.094;8.496;2022-09-27T08:05:00;98691.56;;;14.06;68.10
50702;BME280;36670;50.094;8.496;2022-09-27T08:07:27;98700.75;;;14.15;68.04
50702;BME280;36670;50.094;8.496;2022-09-27T08:09:52;98694.56;;;14.41;68.32
50702;BME280;36670;50.094;8.496;2022-09-27T08:12:18;98707.28;;;14.64;67.75
50702;BME280;36670;50.094;8.496;2022-09-27T08:14:46;98692.00;;;14.53;66.19
50702;BME280;36670;50.094;8.496;2022-09-27T08:17:12;98707.72;;;15.47;65.32
50702;BME280;36670;50.094;8.496;2022-09-27T08:19:38;98709.56;;;15.69;61.83
50702;BME280;36670;50.094;8.496;2022-09-27T08:22:05;98714.66;;;16.37;62.29
50702;BME280;36670;50.094;8.496;2022-09-27T08:24:30;98700.28;;;16.73;62.38
50702;BME280;36670;50.094;8.496;2022-09-27T08:26:57;98703.34;;;16.98;61.42
50702;BME280;36670;50.094;8.496;2022-09-27T08:29:22;98712.81;;;17.06;60.31
50702;BME280;36670;50.094;8.496;2022-09-27T08:31:50;98710.47;;;16.69;59.94
50702;BME280;36670;50.094;8.496;2022-09-27T08:34:15;98717.88;;;16.57;59.20
50702;BME280;36670;50.094;8.496;2022-09-27T08:36:42;98705.63;;;16.40;57.66
50702;BME280;36670;50.094;8.496;2022-09-27T08:39:08;98726.94;;;16.18;59.54
50702;BME280;36670;50.094;8.496;2022-09-27T08:41:39;98738.09;;;15.92;57.71
50702;BME280;36670;50.094;8.496;2022-09-27T08:46:46;98738.75;;;16.07;59.74
50702;BME280;36670;50.094;8.496;2022-09-27T08:49:30;98745.81;;;15.38;59.30
50702;BME280;36670;50.094;8.496;2022-09-27T08:51:58;98745.22;;;15.58;60.49
50702;BME280;36670;50.094;8.496;2022-09-27T08:54:26;98742.00;;;16.09;59.39
50702;BME280;36670;50.094;8.496;2022-09-27T08:56:59;98742.50;;;15.84;58.79
50702;BME280;36670;50.094;8.496;2022-09-27T09:02:34;98745.44;;;15.79;58.91
50702;BME280;36670;50.094;8.496;2022-09-27T09:05:14;98733.56;;;16.70;58.78
50702;BME280;36670;50.094;8.496;2022-09-27T09:11:13;98746.28;;;15.97;57.38
50702;BME280;36670;50.094;8.496;2022-09-27T09:27:50;98735.78;;;16.47;56.09
50702;BME280;36670;50.094;8.496;2022-09-27T09:30:23;98709.78;;;16.72;56.42
50702;BME280;36670;50.094;8.496;2022-09-27T09:35:58;98724.19;;;16.92;53.88
50702;BME280;36670;50.094;8.496;2022-09-27T09:38:46;98729.63;;;16.71;53.81
50702;BME280;36670;50.094;8.496;2022-09-27T09:43:56;98712.63;;;16.64;53.11
50702;BME280;36670;50.094;8.496;2022-09-27T09:51:53;98725.31;;;17.30;52.40
50702;BME280;36670;50.094;8.496;2022-09-27T09:54:35;98702.41;;;16.85;51.38
50702;BME280;36670;50.094;8.496;2022-09-27T09:59:42;98724.22;;;16.75;53.13
50702;BME280;36670;50.094;8.496;2022-09-27T10:02:34;98721.78;;;16.64;52.22
50702;BME280;36670;50.094;8.496;2022-09-27T10:05:02;98726.56;;;16.55;52.33
50702;BME280;36670;50.094;8.496;2022-09-27T10:07:28;98698.13;;;15.79;53.96
50702;BME280;36670;50.094;8.496;2022-09-27T10:09:56;98714.34;;;16.21;52.40
50702;BME280;36670;50.094;8.496;2022-09-27T10:12:23;98714.50;;;16.25;52.80
50702;BME280;36670;50.094;8.496;2022-09-27T10:14:49;98690.28;;;15.99;53.79
50702;BME280;36670;50.094;8.496;2022-09-27T10:17:19;98692.06;;;16.86;52.84
50702;BME280;36670;50.094;8.496;2022-09-27T10:19:46;98702.94;;;16.61;52.05
50702;BME280;36670;50.094;8.496;2022-09-27T10:22:43;98682.69;;;16.99;53.27
50702;BME280;36670;50.094;8.496;2022-09-27T10:25:12;98680.00;;;16.64;51.41
50702;BME280;36670;50.094;8.496;2022-09-27T10:27:56;98690.41;;;16.85;51.42
50702;BME280;36670;50.094;8.496;2022-09-27T10:30:25;98699.50;;;17.12;51.70
50702;BME280;36670;50.094;8.496;2022-09-27T10:32:59;98706.16;;;16.81;52.15
50702;BME280;36670;50.094;8.496;2022-09-27T10:35:33;98693.44;;;16.62;51.74
50702;BME280;36670;50.094;8.496;2022-09-27T10:38:22;98707.59;;;16.31;51.54
50702;BME280;36670;50.094;8.496;2022-09-27T10:40:49;98700.91;;;16.06;52.61
50702;BME280;36670;50.094;8.496;2022-09-27T10:43:33;98715.59;;;15.62;53.31
50702;BME280;36670;50.094;8.496;2022-09-27T10:46:24;98709.09;;;15.76;54.26
50702;BME280;36670;50.094;8.496;2022-09-27T10:48:47;98692.88;;;15.78;53.86
50702;BME280;36670;50.094;8.496;2022-09-27T10:51:29;98691.06;;;16.34;53.67
50702;BME280;36670;50.094;8.496;2022-09-27T10:53:55;98682.25;;;16.88;52.40
50702;BME280;36670;50.094;8.496;2022-09-27T10:56:30;98680.56;;;17.26;51.98
50702;BME280;36670;50.094;8.496;2022-09-27T10:58:58;98669.59;;;16.82;51.05
50702;BME280;36670;50.094;8.496;2022-09-27T11:01:38;98677.13;;;16.91;50.59
50702;BME280;36670;50.094;8.496;2022-09-27T11:04:05;98668.88;;;17.03;50.69
50702;BME280;36670;50.094;8.496;2022-09-27T11:06:31;98674.09;;;17.13;49.78
50702;BME280;36670;50.094;8.496;2022-09-27T11:09:15;98654.38;;;16.88;50.51
50702;BME280;36670;50.094;8.496;2022-09-27T11:11:43;98672.41;;;16.91;49.50
50702;BME280;36670;50.094;8.496;2022-09-27T11:14:19;98662.75;;;16.71;49.35
50702;BME280;36670;50.094;8.496;2022-09-27T11:17:07;98672.34;;;17.00;50.35
50702;BME280;36670;50.094;8.496;2022-09-27T11:22:33;98665.91;;;17.08;48.47
50702;BME280;36670;50.094;8.496;2022-09-27T11:25:19;98674.91;;;17.14;48.01
50702;BME280;36670;50.094;8.496;2022-09-27T11:27:58;98667.06;;;17.37;46.50
50702;BME280;36670;50.094;8.496;2022-09-27T11:30:36;98663.47;;;17.06;47.71
50702;BME280;36670;50.094;8.496;2022-09-27T11:38:52;98662.03;;;17.72;46.57
50702;BME280;36670;50.094;8.496;2022-09-27T11:47:37;98652.69;;;18.11;47.28
50702;BME280;36670;50.094;8.496;2022-09-27T11:50:30;98647.31;;;17.63;47.51
50702;BME280;36670;50.094;8.496;2022-09-27T11:53:15;98657.94;;;18.12;47.46
50702;BME280;36670;50.094;8.496;2022-09-27T11:58:48;98631.94;;;17.99;47.62
50702;BME280;36670;50.094;8.496;2022-09-27T12:01:29;98633.03;;;18.65;46.00
50702;BME280;36670;50.094;8.496;2022-09-27T12:09:22;98652.81;;;18.14;45.00
50702;BME280;36670;50.094;8.496;2022-09-27T12:11:56;98647.81;;;18.66;45.61
50702;BME280;36670;50.094;8.496;2022-09-27T12:14:42;98636.06;;;18.72;45.01
50702;BME280;36670;50.094;8.496;2022-09-27T12:17:12;98645.50;;;18.68;45.89
50702;BME280;36670;50.094;8.496;2022-09-27T12:19:44;98642.41;;;18.36;46.19
50702;BME280;36670;50.094;8.496;2022-09-27T12:22:15;98643.78;;;17.96;47.10
50702;BME280;36670;50.094;8.496;2022-09-27T12:24:44;98643.03;;;17.45;47.81
50702;BME280;36670;50.094;8.496;2022-09-27T12:27:18;98645.97;;;17.48;47.75
50702;BME280;36670;50.094;8.496;2022-09-27T12:29:47;98638.25;;;17.45;47.76
50702;BME280;36670;50.094;8.496;2022-09-27T12:32:26;98648.59;;;17.87;47.61
50702;BME280;36670;50.094;8.496;2022-09-27T12:35:05;98638.81;;;17.81;46.53
50702;BME280;36670;50.094;8.496;2022-09-27T12:37:51;98647.44;;;17.88;46.00
50702;BME280;36670;50.094;8.496;2022-09-27T12:40:27;98645.13;;;17.69;46.15
50702;BME280;36670;50.094;8.496;2022-09-27T12:43:15;98640.84;;;17.50;46.82
50702;BME280;36670;50.094;8.496;2022-09-27T12:46:07;98642.78;;;17.08;47.30
50702;BME280;36670;50.094;8.496;2022-09-27T12:51:18;98648.34;;;16.69;48.37
50702;BME280;36670;50.094;8.496;2022-09-27T12:56:37;98639.25;;;16.42;49.09
50702;BME280;36670;50.094;8.496;2022-09-27T13:02:11;98641.97;;;15.95;50.04
50702;BME280;36670;50.094;8.496;2022-09-27T13:05:19;98646.38;;;15.69;49.84
50702;BME280;36670;50.094;8.496;2022-09-27T13:07:58;98652.28;;;15.59;50.45
50702;BME280;36670;50.094;8.496;2022-09-27T13:13:01;98644.19;;;15.14;51.49
50702;BME280;36670;50.094;8.496;2022-09-27T13:15:31;98643.72;;;15.21;52.24
50702;BME280;36670;50.094;8.496;2022-09-27T13:17:58;98646.66;;;15.15;52.32
50702;BME280;36670;50.094;8.496;2022-09-27T13:20:36;98640.00;;;15.51;52.03
50702;BME280;36670;50.094;8.496;2022-09-27T13:25:52;98641.16;;;15.59;51.77
50702;BME280;36670;50.094;8.496;2022-09-27T13:30:52;98649.28;;;15.29;52.32
50702;BME280;36670;50.094;8.496;2022-09-27T13:39:01;98644.63;;;14.81;55.74
50702;BME280;36670;50.094;8.496;2022-09-27T13:44:14;98650.69;;;14.92;57.15
50702;BME280;36670;50.094;8.496;2022-09-27T13:46:50;98642.72;;;14.99;57.01
50702;BME280;36670;50.094;8.496;2022-09-27T13:49:36;98640.56;;;14.96;56.37
50702;BME280;36670;50.094;8.496;2022-09-27T13:52:04;98644.88;;;14.71;55.54
50702;BME280;36670;50.094;8.496;2022-09-27T13:54:49;98647.88;;;14.83;56.36
50702;BME280;36670;50.094;8.496;2022-09-27T14:00:03;98639.09;;;14.98;56.84
50702;BME280;36670;50.094;8.496;2022-09-27T14:02:35;98636.97;;;14.87;57.47
50702;BME280;36670;50.094;8.496;2022-09-27T14:05:08;98630.06;;;14.84;58.11
50702;BME280;36670;50.094;8.496;2022-09-27T14:07:40;98636.28;;;14.81;57.72
50702;BME280;36670;50.094;8.496;2022-09-27T14:10:11;98633.19;;;14.82;58.43
50702;BME280;36670;50.094;8.496;2022-09-27T14:12:39;98635.38;;;15.03;58.08
50702;BME280;36670;50.094;8.496;2022-09-27T14:15:07;98634.09;;;15.27;57.27
50702;BME280;36670;50.094;8.496;2022-09-27T14:17:34;98627.88;;;15.39;57.37
50702;BME280;36670;50.094;8.496;2022-09-27T14:20:05;98634.59;;;15.38;57.34
50702;BME280;36670;50.094;8.496;2022-09-27T14:22:32;98629.19;;;15.50;56.90
50702;BME280;36670;50.094;8.496;2022-09-27T14:24:59;98627.06;;;15.56;56.36
50702;BME280;36670;50.094;8.496;2022-09-27T14:27:29;98616.59;;;15.09;56.61
50702;BME280;36670;50.094;8.496;2022-09-27T14:30:00;98630.78;;;15.07;57.35
50702;BME280;36670;50.094;8.496;2022-09-27T14:32:32;98629.56;;;14.82;57.80
50702;BME280;36670;50.094;8.496;2022-09-27T14:35:22;98640.81;;;15.26;56.57
50702;BME280;36670;50.094;8.496;2022-09-27T14:38:10;98647.88;;;15.49;56.34
50702;BME280;36670;50.094;8.496;2022-09-27T14:40:41;98645.00;;;15.06;56.71
50702;BME280;36670;50.094;8.496;2022-09-27T14:43:16;98641.59;;;15.09;56.87
50702;BME280;36670;50.094;8.496;2022-09-27T14:45:44;98650.72;;;15.00;57.50
50702;BME280;36670;50.094;8.496;2022-09-27T14:48:35;98646.84;;;15.19;56.06
50702;BME280;36670;50.094;8.496;2022-09-27T14:53:32;98642.13;;;14.71;56.03
50702;BME280;36670;50.094;8.496;2022-09-27T14:55:59;98650.41;;;15.02;55.79
50702;BME280;36670;50.094;8.496;2022-09-27T14:58:25;98655.66;;;15.21;55.36
50702;BME280;36670;50.094;8.496;2022-09-27T15:00:51;98658.84;;;14.88;57.42
50702;BME280;36670;50.094;8.496;2022-09-27T15:03:29;98660.16;;;14.28;60.65
50702;BME280;36670;50.094;8.496;2022-09-27T15:05:59;98669.31;;;13.83;59.41
50702;BME280;36670;50.094;8.496;2022-09-27T15:08:27;98664.34;;;13.71;61.70
50702;BME280;36670;50.094;8.496;2022-09-27T15:10:55;98658.97;;;13.52;61.94
50702;BME280;36670;50.094;8.496;2022-09-27T15:13:21;98663.81;;;13.32;63.96
50702;BME280;36670;50.094;8.496;2022-09-27T15:15:47;98669.78;;;13.40;62.92
50702;BME280;36670;50.094;8.496;2022-09-27T15:18:33;98671.22;;;13.37;63.26
50702;BME280;36670;50.094;8.496;2022-09-27T15:21:06;98674.44;;;13.17;64.58
50702;BME280;36670;50.094;8.496;2022-09-27T15:23:50;98680.25;;;13.15;64.26